• Join FlightAware (Why Join?)
  • Login
  • US Flag 
06:00PM EDT


 

Airport Tracker/Info


-or-


 

Live Flight TrackerFlight Track Log ✈ N487VC ✈ 21-Apr-2013 ✈ KBED - KTTN

Flight Track Log - Related Links

Times and Time Zones

All times are in EDT time to prevent confusion due to time zone crossing. See the N487VC flight status page for this flight to view local times or setup timezone preferences in your user account.

Time Position Orientation Groundspeed Altitude Reporting Facility
EDT Latitude Longitude Course Direction KTS MPH feet Rate Location/Type
07:40AM 42.4667 -71.3333 264° West 172 198 1,600  Level KA90
07:41AM 42.4167 -71.3667 206° Southwest 194 223 3,500 1,920 Climbing KA90
07:42AM 42.3667 -71.3667 180° South 191 220 5,500 2,160 Climbing KA90
07:43AM 42.3411 -71.3728 190° South 208 239 6,900 2,040 Climbing Boston Center
07:44AM 42.2892 -71.3708 178° South 196 226 8,700 1,860 Climbing Boston Center
07:45AM 42.2489 -71.3211 138° Southeast 183 211 10,700 1,620 Climbing Boston Center
07:46AM 42.2089 -71.2686 136° Southeast 194 223 12,000 1,560 Climbing Boston Center
07:47AM 42.1653 -71.2833 194° South 159 183 13,900 1,680 Climbing Boston Center
07:48AM 42.1383 -71.3147 221° Southwest 141 162 15,400 1,020 Climbing Boston Center
07:49AM 42.1075 -71.3486 219° Southwest 141 162 16,000 300 Climbing Boston Center
07:50AM 42.0683 -71.3886 217° Southwest 164 189 16,000  Level Boston Center
07:51AM 42.0228 -71.4339 216° Southwest 190 219 16,000  Level Boston Center
07:52AM 41.9794 -71.4794 218° Southwest 203 234 16,000  Level Boston Center
07:53AM 41.9258 -71.5333 217° Southwest 203 234 16,000  Level Boston Center
07:54AM 41.8864 -71.5756 219° Southwest 203 234 16,000  Level Boston Center
07:55AM 41.8411 -71.6208 217° Southwest 203 234 16,000  Level Boston Center
07:56AM 41.7914 -71.6717 217° Southwest 198 228 16,000  Level Boston Center
07:57AM 41.7478 -71.7194 219° Southwest 198 228 16,000  Level Boston Center
07:58AM 41.7022 -71.7644 216° Southwest 203 234 16,000  Level Boston Center
07:59AM 41.6589 -71.8122 219° Southwest 203 234 16,000  Level Boston Center
08:00AM 41.6133 -71.8569 216° Southwest 203 234 16,000  Level Boston Center
08:01AM 41.5675 -71.9044 218° Southwest 203 234 16,000  Level Boston Center
08:02AM 41.5239 -71.9494 218° Southwest 203 234 16,000  Level Boston Center
08:03AM 41.4764 -71.9969 217° Southwest 203 234 16,000  Level Boston Center
08:04AM 41.4306 -72.0442 218° Southwest 203 234 16,000  Level Boston Center
08:05AM 41.3869 -72.0914 219° Southwest 203 234 16,000  Level Boston Center
08:06AM 41.3392 -72.1361 215° Southwest 203 234 16,000  Level Boston Center
08:07AM 41.2936 -72.1831 218° Southwest 203 234 16,000  Level Boston Center
08:08AM 41.2497 -72.2219 214° Southwest 203 234 16,100  Climbing Boston Center
08:09AM 41.2039 -72.2692 218° Southwest 208 239 16,100  Level Boston Center
08:10AM 41.1561 -72.3133 215° Southwest 208 239 16,100  Level Boston Center
08:11AM 41.1083 -72.3631 218° Southwest 215 247 16,100  Level Boston Center
08:12AM 41.0625 -72.4097 218° Southwest 215 247 16,100  Level Boston Center
08:13AM 41.0167 -72.4567 218° Southwest 215 247 16,100  Level Boston Center
08:14AM 40.9686 -72.5033 216° Southwest 220 253 16,100  Level Boston Center
08:15AM 40.9186 -72.5500 215° Southwest 220 253 16,100  Level Boston Center
08:16AM 40.8706 -72.5967 216° Southwest 220 253 16,100  Level Boston Center
08:17AM 40.8206 -72.6539 221° Southwest 226 260 16,100  Level Boston Center
08:18AM 40.7725 -72.7006 216° Southwest 226 260 16,100 -60 Level Boston Center
08:20AM 40.6694 -72.8014 217° Southwest 218 251 16,000 -60 Descending New York Center
08:21AM 40.6206 -72.8492 217° Southwest 218 251 16,000  Level New York Center
08:22AM 40.5719 -72.8969 217° Southwest 223 257 16,000  Level New York Center
08:23AM 40.5231 -72.9472 218° Southwest 228 262 16,100  Climbing New York Center
08:24AM 40.4742 -72.9919 215° Southwest 223 257 16,100  Level New York Center
08:25AM 40.4275 -73.0367 216° Southwest 228 262 16,100  Level New York Center
08:26AM 40.3767 -73.0842 215° Southwest 228 262 16,100  Level New York Center
08:27AM 40.3319 -73.1344 221° Southwest 228 262 16,100 -360 Level New York Center
08:28AM 40.2914 -73.1819 222° Southwest 223 257 15,400 -1,140 Descending New York Center
08:29AM 40.2358 -73.2453 221° Southwest 234 269 13,900 -1,440 Descending New York Center
08:30AM 40.1908 -73.2981 222° Southwest 239 275 12,600 -1,440 Descending New York Center
08:31AM 40.1333 -73.3636 221° Southwest 239 275 11,100 -1,440 Descending New York Center
08:32AM 40.0903 -73.4217 226° Southwest 246 283 9,800 -1,440 Descending New York Center
08:33AM 40.0406 -73.4958 229° Southwest 252 290 8,300 -1,440 Descending New York Center
08:34AM 40.0344 -73.5742 264° West 234 269 7,000 -1,440 Descending New York Center
08:35AM 40.0261 -73.6686 263° West 247 284 5,500 -1,440 Descending New York Center
08:36AM 40.0200 -73.7469 264° West 247 284 4,200 -780 Descending New York Center
08:37AM 40.0092 -73.8361 261° West 258 297 4,000 -120 Descending New York Center
08:38AM 40.0194 -73.9178 279° West 245 282 4,000  Level New York Center
08:39AM 40.0464 -74.0003 293° West 228 262 4,000  Level New York Center
08:40AM 40.0694 -74.0747 292° West 228 262 4,000  Level New York Center
08:41AM 40.0925 -74.1461 293° West 222 255 4,000  Level New York Center
08:42AM 40.1136 -74.2097 293° West 212 244 4,000  Level New York Center
08:43AM 40.1364 -74.2842 292° West 212 244 4,000  Level New York Center
08:44AM 40.1572 -74.3531 292° West 212 244 4,000  Level New York Center
08:45AM 40.1781 -74.4219 292° West 212 244 4,000  Level New York Center
08:46AM 40.1989 -74.4831 294° West 212 244 4,000  Level New York Center
08:47AM 40.2108 -74.5653 281° West 212 244 4,000  Level New York Center
08:48AM 40.2194 -74.6342 279° West 205 236 4,000 -360 Level FAA TRACON SMA TRACON (SMA)
08:48AM 40.2239 -74.6581 284° West 205 236 3,600 -1,260 Descending FAA TRACON SMA TRACON (SMA)
08:49AM 40.2317 -74.6783 297° West 200 230 3,200 -1,080 Descending FAA TRACON SMA TRACON (SMA)
08:49AM 40.2408 -74.7028 296° West 190 219 2,900 -1,320 Descending FAA TRACON SMA TRACON (SMA)
08:49AM 40.2436 -74.7236 280° West 189 217 2,300 -1,560 Descending FAA TRACON SMA TRACON (SMA)
08:50AM 40.2419 -74.7450 264° West 202 232 1,900 -1,260 Descending FAA TRACON SMA TRACON (SMA)
08:50AM 40.2381 -74.7622 254° West 153 176 1,400 -1,260 Descending FAA TRACON SMA TRACON (SMA)
08:50AM 40.2428 -74.7786 291° West 106 122 1,000 -840 Descending FAA TRACON SMA TRACON (SMA)
08:51AM 40.2486 -74.7856 318° Northwest 113 130 900 -660 Descending FAA TRACON SMA TRACON (SMA)
08:51AM 40.2586 -74.7953 323° Northwest 113 130 600 -660 Descending FAA TRACON SMA TRACON (SMA)
08:51AM 40.2661 -74.8008 331° Northwest 105 121 500 -360 Descending FAA TRACON SMA TRACON (SMA)
08:52AM 40.2653 -74.8008 180° South 109 125 400 -180 Descending FAA TRACON SMA TRACON (SMA)
08:52AM 40.2653 -74.8008 229° Southwest 109 125 400  Level FAA TRACON SMA TRACON (SMA)